createdAt,value
2022-08-07T00:03:08.915Z,29.60
2022-08-07T00:08:09.217Z,29.58
2022-08-07T00:13:17.509Z,29.46
2022-08-07T00:18:26.163Z,29.33
2022-08-07T00:23:28.316Z,29.37
2022-08-07T00:28:33.200Z,29.40
2022-08-07T00:33:33.432Z,29.38
2022-08-07T00:38:35.009Z,29.37
2022-08-07T00:44:01.217Z,29.28
2022-08-07T00:48:54.519Z,29.27
2022-08-07T00:53:55.989Z,29.20
2022-08-07T00:58:54.890Z,29.12
2022-08-07T01:03:55.981Z,29.17
2022-08-07T01:09:01.480Z,29.18
2022-08-07T01:14:02.853Z,29.22
2022-08-07T01:19:01.722Z,29.24
2022-08-07T01:24:04.504Z,29.20
2022-08-07T01:29:03.793Z,29.08
2022-08-07T01:34:05.908Z,28.91
2022-08-07T01:39:10.741Z,28.80
2022-08-07T01:44:13.528Z,28.71
2022-08-07T01:49:14.036Z,28.60
2022-08-07T01:54:36.697Z,28.56
2022-08-07T01:59:45.546Z,28.52
2022-08-07T02:04:56.022Z,28.47
2022-08-07T02:10:01.106Z,28.48
2022-08-07T02:15:06.766Z,28.48
2022-08-07T02:20:17.277Z,28.44
2022-08-07T02:25:47.225Z,28.29
2022-08-07T02:30:44.679Z,28.19
2022-08-07T02:36:29.287Z,28.29
2022-08-07T02:41:14.493Z,28.31
2022-08-07T02:46:25.783Z,28.21
2022-08-07T02:51:42.813Z,27.97
2022-08-07T02:56:51.997Z,27.88
2022-08-07T03:01:52.290Z,27.75
2022-08-07T03:06:56.304Z,27.78
2022-08-07T03:12:02.813Z,27.83
2022-08-07T03:17:06.130Z,27.70
2022-08-07T03:22:18.557Z,27.50
2022-08-07T03:27:30.836Z,27.48
2022-08-07T03:32:49.037Z,27.30
2022-08-07T03:38:04.756Z,27.30
2022-08-07T03:43:10.061Z,27.28
2022-08-07T03:48:14.211Z,27.29
2022-08-07T03:53:13.280Z,27.20
2022-08-07T03:59:06.700Z,27.12
2022-08-07T04:03:49.833Z,27.10
2022-08-07T04:08:53.970Z,27.29
2022-08-07T04:14:10.607Z,27.21
2022-08-07T04:19:17.285Z,27.29
2022-08-07T04:24:30.705Z,27.25
2022-08-07T04:29:58.244Z,27.21
2022-08-07T04:35:11.267Z,27.28
2022-08-07T04:40:12.928Z,27.28
2022-08-07T04:45:16.282Z,27.36
2022-08-07T04:50:38.223Z,27.45
2022-08-07T04:58:15.111Z,27.55
2022-08-07T05:01:18.429Z,27.66
2022-08-07T05:06:28.158Z,27.74
2022-08-07T05:11:57.075Z,27.90
2022-08-07T05:16:58.807Z,28.05
2022-08-07T05:22:02.000Z,28.19
2022-08-07T05:28:02.160Z,28.30
2022-08-07T05:32:32.713Z,28.35
2022-08-07T05:37:32.520Z,28.40
2022-08-07T05:42:40.516Z,28.51
2022-08-07T05:48:01.065Z,28.68
2022-08-07T05:53:04.145Z,28.70
2022-08-07T05:58:06.577Z,28.71
2022-08-07T06:03:12.946Z,28.77
2022-08-07T06:08:31.287Z,28.72
2022-08-07T06:14:10.461Z,28.88
2022-08-07T06:18:55.802Z,28.90
2022-08-07T06:24:52.288Z,28.99
2022-08-07T06:29:15.573Z,29.16
2022-08-07T06:34:16.072Z,29.17
2022-08-07T06:40:15.756Z,29.26
2022-08-07T06:44:41.102Z,29.25
2022-08-07T06:49:51.612Z,29.35
2022-08-07T06:55:31.764Z,29.42
2022-08-07T07:00:20.858Z,29.48
2022-08-07T07:06:05.708Z,29.60
2022-08-07T07:10:47.576Z,29.78
2022-08-07T07:16:03.232Z,29.93
2022-08-07T07:21:19.236Z,30.15
2022-08-07T07:26:35.301Z,30.32
2022-08-07T07:31:44.591Z,30.42
2022-08-07T07:36:53.972Z,30.58
2022-08-07T07:42:13.750Z,30.61
2022-08-07T07:47:23.069Z,30.77
2022-08-07T07:52:24.449Z,30.93
2022-08-07T07:57:52.082Z,31.01
2022-08-07T08:03:04.781Z,31.32
2022-08-07T08:08:07.895Z,31.39
2022-08-07T08:13:36.667Z,31.71
2022-08-07T08:18:50.438Z,31.85
2022-08-07T08:24:36.144Z,32.18
2022-08-07T08:29:54.723Z,32.43
2022-08-07T08:34:55.868Z,32.51
2022-08-07T08:39:58.388Z,32.79
2022-08-07T08:45:06.313Z,33.50
2022-08-07T08:50:35.131Z,34.00
2022-08-07T08:55:53.764Z,34.47
2022-08-07T09:01:15.148Z,35.11
2022-08-07T09:06:28.621Z,35.80
2022-08-07T09:11:50.731Z,36.73
2022-08-07T09:17:01.624Z,37.13
2022-08-07T09:24:27.447Z,37.96
2022-08-07T09:27:59.796Z,38.71
2022-08-07T09:33:16.710Z,39.49
2022-08-07T09:38:53.624Z,39.84
2022-08-07T09:44:19.211Z,40.11
2022-08-07T09:50:01.530Z,40.89
2022-08-07T09:55:17.256Z,41.20
2022-08-07T10:00:41.381Z,41.04
2022-08-07T10:06:10.536Z,40.81
2022-08-07T10:12:01.940Z,39.40
2022-08-07T10:17:14.499Z,39.82
2022-08-07T10:22:39.416Z,40.59
2022-08-07T10:28:12.781Z,40.86
2022-08-07T10:34:05.670Z,41.42
2022-08-07T10:39:12.345Z,41.25
2022-08-07T10:44:19.543Z,40.91
2022-08-07T10:49:49.815Z,42.12
2022-08-07T10:55:07.859Z,42.93
2022-08-07T11:00:39.127Z,42.58
2022-08-07T11:05:50.863Z,41.76
2022-08-07T11:11:00.184Z,42.08
2022-08-07T11:16:07.172Z,41.82
2022-08-07T11:21:14.187Z,41.70
2022-08-07T11:26:21.429Z,40.63
2022-08-07T11:31:35.114Z,40.89
2022-08-07T11:36:50.881Z,42.32
2022-08-07T11:42:02.793Z,42.24
2022-08-07T11:47:10.420Z,42.02
2022-08-07T11:52:29.302Z,42.83
2022-08-07T11:58:00.112Z,43.79
2022-08-07T12:03:44.498Z,42.83
2022-08-07T12:08:49.168Z,42.99
2022-08-07T12:13:55.495Z,44.19
2022-08-07T12:19:02.823Z,44.72
2022-08-07T12:24:36.874Z,45.38
2022-08-07T12:29:37.799Z,45.17
2022-08-07T12:34:42.121Z,44.99
2022-08-07T12:39:51.958Z,44.30
2022-08-07T12:44:52.868Z,44.67
2022-08-07T12:50:04.650Z,45.59
2022-08-07T12:55:17.493Z,45.23
2022-08-07T13:00:21.018Z,44.69
2022-08-07T13:06:03.651Z,44.85
2022-08-07T13:11:18.399Z,45.52
2022-08-07T13:16:28.479Z,44.74
2022-08-07T13:21:37.830Z,43.81
2022-08-07T13:26:58.901Z,44.93
2022-08-07T13:32:23.621Z,45.19
2022-08-07T13:37:29.678Z,45.17
2022-08-07T13:42:35.183Z,45.46
2022-08-07T13:48:08.473Z,45.77
2022-08-07T13:53:01.046Z,46.85
2022-08-07T13:58:28.091Z,47.11
2022-08-07T14:04:07.329Z,45.30
2022-08-07T14:08:56.353Z,46.51
2022-08-07T14:14:09.506Z,46.10
2022-08-07T14:20:43.047Z,47.02
2022-08-07T14:24:41.523Z,47.21
2022-08-07T14:30:07.917Z,47.08
2022-08-07T14:35:10.764Z,46.47
2022-08-07T14:40:27.245Z,46.62
2022-08-07T14:45:46.346Z,46.30
2022-08-07T14:50:52.274Z,46.00
2022-08-07T15:01:22.294Z,46.47
2022-08-07T15:06:27.050Z,45.31
2022-08-07T15:11:53.742Z,44.20
2022-08-07T15:16:54.861Z,43.37
2022-08-07T15:22:04.629Z,42.70
2022-08-07T15:27:11.367Z,42.37
2022-08-07T15:32:13.055Z,42.65
2022-08-07T15:37:12.983Z,42.89
2022-08-07T15:42:51.823Z,42.94
2022-08-07T15:48:00.876Z,42.91
2022-08-07T15:53:05.060Z,42.89
2022-08-07T15:58:06.287Z,42.72
2022-08-07T16:03:22.179Z,42.04
2022-08-07T16:08:42.870Z,42.15
2022-08-07T16:14:04.923Z,42.42
2022-08-07T16:19:14.542Z,42.54
2022-08-07T16:24:33.783Z,42.40
2022-08-07T16:30:10.898Z,41.50
2022-08-07T16:35:58.557Z,41.04
2022-08-07T16:41:23.187Z,40.76
2022-08-07T16:47:06.867Z,40.52
2022-08-07T16:52:51.964Z,40.18
2022-08-07T16:58:01.974Z,39.88
2022-08-07T17:03:18.261Z,39.51
2022-08-07T17:09:09.461Z,39.19
2022-08-07T17:14:17.977Z,38.94
2022-08-07T17:20:02.853Z,38.67
2022-08-07T17:25:10.076Z,38.38
2022-08-07T17:30:16.238Z,38.18
2022-08-07T17:35:50.271Z,37.86
2022-08-07T17:41:12.200Z,37.54
2022-08-07T17:46:34.456Z,37.30
2022-08-07T17:51:49.577Z,37.11
2022-08-07T17:57:02.625Z,36.97
2022-08-07T18:02:29.047Z,36.78
2022-08-07T18:07:43.888Z,36.62
2022-08-07T18:13:11.627Z,36.32
2022-08-07T18:18:46.770Z,36.14
2022-08-07T18:24:02.404Z,35.94
2022-08-07T18:30:07.238Z,35.68
2022-08-07T18:35:00.912Z,35.44
2022-08-07T18:40:18.008Z,35.30
2022-08-07T18:46:24.332Z,34.90
2022-08-07T18:52:33.560Z,34.68
2022-08-07T18:57:23.254Z,34.53
2022-08-07T19:02:34.107Z,34.34
2022-08-07T19:07:36.841Z,34.14
2022-08-07T19:13:11.556Z,33.97
2022-08-07T19:18:34.402Z,33.86
2022-08-07T19:23:57.940Z,33.65
2022-08-07T19:31:02.940Z,33.50
2022-08-07T19:34:34.271Z,33.33
2022-08-07T19:39:56.990Z,33.17
2022-08-07T19:44:56.660Z,33.09
2022-08-07T19:50:03.226Z,33.01
2022-08-07T19:55:24.217Z,32.84
2022-08-07T20:00:29.212Z,32.84
2022-08-07T20:06:00.929Z,32.60
2022-08-07T20:10:56.388Z,32.28
2022-08-07T20:16:03.526Z,32.26
2022-08-07T20:21:21.469Z,32.11
2022-08-07T20:26:32.107Z,31.85
2022-08-07T20:31:32.651Z,31.64
2022-08-07T20:36:37.229Z,31.47
2022-08-07T20:41:42.106Z,31.08
2022-08-07T20:46:44.981Z,31.09
2022-08-07T20:51:49.069Z,31.03
2022-08-07T20:56:52.967Z,30.83
2022-08-07T21:01:58.304Z,30.78
2022-08-07T21:07:04.403Z,30.57
2022-08-07T21:12:15.146Z,30.33
2022-08-07T21:18:09.705Z,30.29
2022-08-07T21:22:44.726Z,30.14
2022-08-07T21:27:55.311Z,30.25
2022-08-07T21:33:12.536Z,30.22
2022-08-07T21:38:27.537Z,30.17
2022-08-07T21:43:55.568Z,30.17
2022-08-07T21:49:14.787Z,29.98
2022-08-07T21:54:23.627Z,30.04
2022-08-07T21:59:36.260Z,29.89
2022-08-07T22:04:56.676Z,29.84
2022-08-07T22:10:03.348Z,29.73
2022-08-07T22:16:45.174Z,29.65
2022-08-07T22:20:35.680Z,29.49
2022-08-07T22:25:43.204Z,29.44
2022-08-07T22:30:56.165Z,29.39
2022-08-07T22:36:00.866Z,29.35
2022-08-07T22:41:08.874Z,29.21
2022-08-07T22:47:01.867Z,29.12
2022-08-07T22:51:52.340Z,29.12
2022-08-07T22:57:16.867Z,29.06
2022-08-07T23:02:31.371Z,28.94
2022-08-07T23:07:45.541Z,28.90
2022-08-07T23:12:57.411Z,28.83
2022-08-07T23:18:10.374Z,28.72
2022-08-07T23:24:04.490Z,28.46
2022-08-07T23:29:03.603Z,28.37
2022-08-07T23:34:40.666Z,28.28
2022-08-07T23:39:48.055Z,28.38
2022-08-07T23:45:33.454Z,28.22
2022-08-07T23:50:46.453Z,28.19
2022-08-07T23:55:55.610Z,28.11
